createdAt,value
2022-12-04T00:01:18.710Z,52.45
2022-12-04T00:03:45.773Z,48.90
2022-12-04T00:06:18.433Z,51.53
2022-12-04T00:08:46.591Z,54.30
2022-12-04T00:11:16.608Z,53.95
2022-12-04T00:13:43.756Z,51.55
2022-12-04T00:16:17.006Z,52.30
2022-12-04T00:18:43.971Z,50.03
2022-12-04T00:21:12.737Z,53.58
2022-12-04T00:23:40.303Z,54.80
2022-12-04T00:26:16.818Z,53.72
2022-12-04T00:28:44.187Z,53.13
2022-12-04T00:31:16.208Z,53.30
2022-12-04T00:33:44.212Z,58.50
2022-12-04T00:36:13.987Z,55.20
2022-12-04T00:38:42.667Z,53.45
2022-12-04T00:41:11.361Z,54.10
2022-12-04T00:43:38.601Z,56.08
2022-12-04T00:46:05.646Z,52.85
2022-12-04T00:48:32.508Z,56.35
2022-12-04T00:51:06.969Z,54.65
2022-12-04T00:53:33.999Z,61.03
2022-12-04T00:56:05.467Z,59.72
2022-12-04T00:58:32.226Z,52.13
2022-12-04T01:01:06.966Z,54.45
2022-12-04T01:03:34.764Z,51.03
2022-12-04T01:06:02.521Z,50.30
2022-12-04T01:08:29.487Z,53.10
2022-12-04T01:10:56.277Z,54.45
2022-12-04T01:13:23.640Z,57.42
2022-12-04T01:15:50.952Z,57.72
2022-12-04T01:18:18.751Z,53.13
2022-12-04T01:20:50.588Z,56.22
2022-12-04T01:23:19.139Z,57.40
2022-12-04T01:25:54.080Z,59.25
2022-12-04T01:28:21.541Z,57.55
2022-12-04T01:31:08.327Z,57.40
2022-12-04T01:33:37.203Z,56.45
2022-12-04T01:36:10.332Z,53.22
2022-12-04T01:38:38.288Z,56.25
2022-12-04T01:41:06.148Z,60.42
2022-12-04T01:43:35.341Z,56.67
2022-12-04T01:46:03.246Z,62.92
2022-12-04T01:48:36.084Z,51.35
2022-12-04T01:51:30.578Z,54.53
2022-12-04T01:54:05.104Z,56.08
2022-12-04T01:56:54.358Z,57.33
2022-12-04T01:59:26.761Z,54.70
2022-12-04T02:02:02.959Z,60.80
2022-12-04T02:04:31.409Z,56.35
2022-12-04T02:06:58.415Z,57.42
2022-12-04T02:09:27.369Z,57.25
2022-12-04T02:12:23.146Z,56.60
2022-12-04T02:15:10.697Z,58.22
2022-12-04T02:18:08.287Z,54.88
2022-12-04T02:20:59.409Z,56.60
2022-12-04T02:23:49.445Z,56.00
2022-12-04T02:26:29.889Z,54.78
2022-12-04T02:29:07.391Z,55.72
2022-12-04T02:31:43.451Z,56.75
2022-12-04T02:34:27.769Z,54.78
2022-12-04T02:37:06.665Z,51.85
2022-12-04T02:39:33.773Z,58.03
2022-12-04T02:42:07.142Z,56.92
2022-12-04T02:44:49.579Z,57.03
2022-12-04T02:47:21.896Z,55.40
2022-12-04T02:49:57.894Z,57.00
2022-12-04T02:52:34.771Z,53.28
2022-12-04T02:55:17.027Z,57.33
2022-12-04T02:57:50.651Z,57.05
2022-12-04T03:00:18.329Z,54.60
2022-12-04T03:02:48.205Z,58.80
2022-12-04T03:05:18.543Z,58.13
2022-12-04T03:07:55.556Z,55.92
2022-12-04T03:10:31.524Z,55.28
2022-12-04T03:13:18.531Z,56.80
2022-12-04T03:15:53.359Z,58.15
2022-12-04T03:18:28.425Z,59.58
2022-12-04T03:21:06.087Z,56.22
2022-12-04T03:23:39.851Z,56.25
2022-12-04T03:26:26.905Z,60.97
2022-12-04T03:29:00.595Z,57.53
2022-12-04T03:31:42.682Z,56.10
2022-12-04T03:34:12.734Z,57.58
2022-12-04T03:37:10.420Z,56.05
2022-12-04T03:40:04.364Z,58.85
2022-12-04T03:42:39.251Z,58.80
2022-12-04T03:45:15.428Z,52.45
2022-12-04T03:47:51.579Z,60.75
2022-12-04T03:50:30.840Z,56.25
2022-12-04T03:53:08.048Z,60.60
2022-12-04T03:55:44.837Z,63.13
2022-12-04T03:58:19.866Z,59.65
2022-12-04T04:00:49.161Z,53.90
2022-12-04T04:03:24.552Z,60.38
2022-12-04T04:05:55.541Z,58.70
2022-12-04T04:08:28.074Z,61.08
2022-12-04T04:11:23.473Z,60.67
2022-12-04T04:14:21.178Z,57.90
2022-12-04T04:17:11.936Z,56.35
2022-12-04T04:19:58.601Z,64.88
2022-12-04T04:22:45.916Z,52.35
2022-12-04T04:25:16.759Z,56.47
2022-12-04T04:27:50.959Z,55.30
2022-12-04T04:30:17.869Z,59.75
2022-12-04T04:33:06.124Z,58.05
2022-12-04T04:35:46.204Z,55.90
2022-12-04T04:38:31.692Z,58.60
2022-12-04T04:41:01.144Z,58.53
2022-12-04T04:43:44.321Z,62.58
2022-12-04T04:46:17.200Z,62.17
2022-12-04T04:48:52.148Z,59.83
2022-12-04T04:51:20.396Z,55.95
2022-12-04T04:53:51.008Z,63.33
2022-12-04T04:56:18.519Z,57.60
2022-12-04T04:58:45.458Z,59.70
2022-12-04T05:01:15.983Z,54.08
2022-12-04T05:03:43.117Z,55.58
2022-12-04T05:06:10.169Z,53.88
2022-12-04T05:08:37.574Z,55.50
2022-12-04T05:11:05.724Z,58.67
2022-12-04T05:13:33.440Z,55.45
2022-12-04T05:16:05.785Z,57.03
2022-12-04T05:18:34.579Z,58.20
2022-12-04T05:21:16.564Z,57.15
2022-12-04T05:23:43.534Z,59.55
2022-12-04T05:26:10.803Z,65.35
2022-12-04T05:28:37.908Z,59.00
2022-12-04T05:31:04.877Z,59.70
2022-12-04T05:33:31.747Z,52.92
2022-12-04T05:36:00.845Z,59.78
2022-12-04T05:38:27.903Z,55.92
2022-12-04T05:40:54.789Z,57.90
2022-12-04T05:43:21.665Z,56.83
2022-12-04T05:45:48.490Z,60.53
2022-12-04T05:48:15.499Z,60.95
2022-12-04T05:50:42.295Z,59.78
2022-12-04T05:53:09.545Z,56.92
2022-12-04T05:55:36.514Z,60.85
2022-12-04T05:58:03.880Z,56.95
2022-12-04T06:00:30.882Z,58.13
2022-12-04T06:02:57.811Z,58.38
2022-12-04T06:05:24.605Z,55.42
2022-12-04T06:07:51.610Z,61.15
2022-12-04T06:10:18.551Z,58.38
2022-12-04T06:12:45.420Z,57.72
2022-12-04T06:15:12.337Z,61.72
2022-12-04T06:17:39.077Z,59.80
2022-12-04T06:20:11.249Z,58.75
2022-12-04T06:22:38.896Z,58.17
2022-12-04T06:25:07.051Z,61.58
2022-12-04T06:27:34.105Z,56.08
2022-12-04T06:30:00.961Z,60.42
2022-12-04T06:32:28.010Z,61.80
2022-12-04T06:34:55.172Z,56.95
2022-12-04T06:37:24.049Z,53.42
2022-12-04T06:39:50.996Z,55.65
2022-12-04T06:42:17.995Z,58.10
2022-12-04T06:44:44.855Z,56.83
2022-12-04T06:47:11.719Z,62.58
2022-12-04T06:49:38.662Z,59.50
2022-12-04T06:52:05.409Z,53.17
2022-12-04T06:54:32.213Z,59.33
2022-12-04T06:56:58.983Z,56.40
2022-12-04T06:59:26.064Z,54.97
2022-12-04T07:01:52.949Z,54.67
2022-12-04T07:04:20.105Z,55.20
2022-12-04T07:06:47.090Z,53.35
2022-12-04T07:09:16.946Z,56.95
2022-12-04T07:11:44.780Z,57.90
2022-12-04T07:14:12.986Z,49.80
2022-12-04T07:16:41.973Z,58.40
2022-12-04T07:19:13.720Z,55.70
2022-12-04T07:21:41.172Z,56.55
2022-12-04T07:24:13.256Z,57.50
2022-12-04T07:26:39.998Z,56.17
2022-12-04T07:29:06.748Z,56.25
2022-12-04T07:31:33.602Z,57.88
2022-12-04T07:34:00.360Z,54.33
2022-12-04T07:36:27.720Z,60.42
2022-12-04T07:38:57.899Z,51.28
2022-12-04T07:41:25.032Z,53.92
2022-12-04T07:43:51.815Z,55.85
2022-12-04T07:46:22.580Z,53.30
2022-12-04T07:48:49.451Z,54.95
2022-12-04T07:51:19.575Z,52.60
2022-12-04T07:53:47.385Z,59.88
2022-12-04T07:56:15.024Z,50.67
2022-12-04T07:58:42.516Z,53.90
2022-12-04T08:01:12.394Z,55.20
2022-12-04T08:03:46.845Z,54.22
2022-12-04T08:06:15.557Z,59.03
2022-12-04T08:08:42.380Z,55.63
2022-12-04T08:11:11.993Z,54.65
2022-12-04T08:13:39.484Z,49.03
2022-12-04T08:16:08.528Z,53.97
2022-12-04T08:18:35.616Z,54.13
2022-12-04T08:21:10.325Z,54.25
2022-12-04T08:23:37.968Z,56.83
2022-12-04T08:26:05.966Z,54.70
2022-12-04T08:28:33.948Z,55.83
2022-12-04T08:31:18.829Z,52.35
2022-12-04T08:33:47.026Z,54.72
2022-12-04T08:36:16.072Z,53.63
2022-12-04T08:38:43.641Z,51.20
2022-12-04T08:41:12.735Z,53.35
2022-12-04T08:43:39.942Z,55.58
2022-12-04T08:46:10.094Z,54.22
2022-12-04T08:48:37.603Z,57.88
2022-12-04T08:51:07.726Z,55.50
2022-12-04T08:53:36.586Z,52.97
2022-12-04T08:56:04.329Z,55.33
2022-12-04T08:58:31.384Z,58.15
2022-12-04T09:01:07.860Z,55.95
2022-12-04T09:03:35.432Z,56.53
2022-12-04T09:06:04.536Z,54.53
2022-12-04T09:08:32.105Z,57.85
2022-12-04T09:11:05.577Z,52.63
2022-12-04T09:13:32.633Z,55.97
2022-12-04T09:15:59.751Z,54.40
2022-12-04T09:18:26.595Z,53.70
2022-12-04T09:21:02.061Z,55.95
2022-12-04T09:23:29.193Z,52.40
2022-12-04T09:25:55.996Z,56.03
2022-12-04T09:28:22.910Z,52.10
2022-12-04T09:31:04.497Z,52.47
2022-12-04T09:33:32.661Z,53.55
2022-12-04T09:36:01.162Z,51.85
2022-12-04T09:38:29.085Z,53.83
2022-12-04T09:41:10.434Z,55.83
2022-12-04T09:43:49.439Z,56.78
2022-12-04T09:46:51.042Z,54.97
2022-12-04T09:49:39.969Z,49.97
2022-12-04T09:52:31.053Z,57.15
2022-12-04T09:55:00.392Z,52.72
2022-12-04T09:57:42.012Z,51.97
2022-12-04T10:00:14.448Z,46.95
2022-12-04T10:02:44.678Z,45.42
2022-12-04T10:05:38.726Z,46.03
2022-12-04T10:08:20.940Z,42.95
2022-12-04T10:10:53.876Z,47.53
2022-12-04T10:13:43.771Z,47.95
2022-12-04T10:16:26.871Z,47.13
2022-12-04T10:19:13.594Z,46.92
2022-12-04T10:22:09.023Z,50.38
2022-12-04T10:24:45.016Z,44.33
2022-12-04T10:27:34.650Z,46.83
2022-12-04T10:30:21.143Z,45.83
2022-12-04T10:32:51.311Z,44.35
2022-12-04T10:35:25.098Z,48.10
2022-12-04T10:37:58.395Z,44.65
2022-12-04T10:40:48.898Z,45.92
2022-12-04T10:43:38.561Z,47.67
2022-12-04T10:46:07.964Z,40.47
2022-12-04T10:48:38.350Z,44.58
2022-12-04T10:51:05.408Z,46.67
2022-12-04T10:53:36.061Z,39.38
2022-12-04T10:56:18.046Z,41.72
2022-12-04T10:59:05.541Z,40.78
2022-12-04T11:01:34.323Z,37.08
2022-12-04T11:04:07.666Z,40.05
2022-12-04T11:06:35.709Z,86.78
2022-12-04T11:09:03.798Z,221.75
2022-12-04T11:11:33.215Z,158.63
2022-12-04T11:14:17.928Z,56.03
2022-12-04T11:16:48.372Z,291.45
2022-12-04T11:19:29.600Z,216.85
2022-12-04T11:22:04.554Z,131.45
2022-12-04T11:24:36.701Z,40.35
2022-12-04T11:27:06.187Z,43.10
2022-12-04T11:29:37.232Z,46.20
2022-12-04T11:32:08.027Z,38.90
2022-12-04T11:34:40.316Z,37.78
2022-12-04T11:37:19.788Z,41.40
2022-12-04T11:39:47.385Z,37.08
2022-12-04T11:42:14.111Z,33.40
2022-12-04T11:44:50.818Z,30.95
2022-12-04T11:47:19.716Z,35.40
2022-12-04T11:50:20.981Z,34.05
2022-12-04T11:53:10.999Z,30.58
2022-12-04T11:56:33.765Z,35.17
2022-12-04T11:59:41.020Z,31.42
2022-12-04T12:02:43.366Z,30.75
2022-12-04T12:05:37.882Z,36.42
2022-12-04T12:08:21.079Z,32.15
2022-12-04T12:10:53.706Z,31.30
2022-12-04T12:13:32.208Z,30.50
2022-12-04T12:16:08.142Z,34.28
2022-12-04T12:18:44.266Z,27.83
2022-12-04T12:21:50.072Z,29.85
2022-12-04T12:24:34.855Z,29.30
2022-12-04T12:27:29.580Z,25.75
2022-12-04T12:30:11.501Z,27.65
2022-12-04T12:32:59.558Z,26.98
2022-12-04T12:35:40.054Z,27.33
2022-12-04T12:38:33.423Z,27.95
2022-12-04T12:41:29.770Z,27.33
2022-12-04T12:44:34.582Z,28.35
2022-12-04T12:47:09.156Z,27.02
2022-12-04T12:49:59.167Z,26.42
2022-12-04T12:52:38.074Z,30.70
2022-12-04T12:55:25.853Z,23.38
2022-12-04T12:58:06.350Z,27.30
2022-12-04T13:00:43.612Z,26.17
2022-12-04T13:03:43.020Z,26.00
2022-12-04T13:06:17.099Z,26.55
2022-12-04T13:08:54.339Z,26.50
2022-12-04T13:11:24.216Z,25.80
2022-12-04T13:13:57.157Z,26.08
2022-12-04T13:16:31.272Z,25.42
2022-12-04T13:19:18.160Z,26.83
2022-12-04T13:21:59.813Z,25.52
2022-12-04T13:24:53.059Z,25.98
2022-12-04T13:27:45.066Z,25.38
2022-12-04T13:30:31.589Z,26.25
2022-12-04T13:33:07.584Z,23.52
2022-12-04T13:36:04.328Z,27.67
2022-12-04T13:38:34.152Z,24.10
2022-12-04T13:41:05.667Z,25.00
2022-12-04T13:43:42.212Z,22.98
2022-12-04T13:46:30.495Z,25.15
2022-12-04T13:49:13.489Z,25.33
2022-12-04T13:51:42.127Z,24.23
2022-12-04T13:54:11.935Z,27.90
2022-12-04T13:57:10.960Z,25.48
2022-12-04T13:59:39.714Z,25.13
2022-12-04T14:02:35.387Z,25.52
2022-12-04T14:05:09.334Z,24.85
2022-12-04T14:07:39.371Z,24.27
2022-12-04T14:10:27.845Z,23.38
2022-12-04T14:13:06.413Z,24.45
2022-12-04T14:15:37.223Z,27.38
2022-12-04T14:18:13.376Z,27.00
2022-12-04T14:20:42.441Z,26.42
2022-12-04T14:23:22.549Z,22.63
2022-12-04T14:25:51.240Z,26.05
2022-12-04T14:28:41.649Z,24.83
2022-12-04T14:31:09.120Z,22.98
2022-12-04T14:33:52.335Z,23.23
2022-12-04T14:36:37.536Z,26.17
2022-12-04T14:39:16.917Z,22.83
2022-12-04T14:41:43.970Z,24.90
2022-12-04T14:44:28.951Z,22.35
2022-12-04T14:47:04.107Z,27.67
2022-12-04T14:49:38.719Z,27.45
2022-12-04T14:52:46.970Z,28.42
2022-12-04T14:55:19.235Z,26.77
2022-12-04T14:57:57.622Z,27.05
2022-12-04T15:00:24.856Z,26.98
2022-12-04T15:02:57.644Z,27.90
2022-12-04T15:05:29.981Z,28.40
2022-12-04T15:08:04.418Z,28.02
2022-12-04T15:10:52.460Z,26.88
2022-12-04T15:13:32.887Z,29.45
2022-12-04T15:16:11.158Z,27.95
2022-12-04T15:18:39.668Z,31.67
2022-12-04T15:21:10.380Z,28.15
2022-12-04T15:23:41.428Z,35.53
2022-12-04T15:26:12.030Z,35.45
2022-12-04T15:28:47.459Z,33.10
2022-12-04T15:31:35.131Z,36.40
2022-12-04T15:34:05.977Z,37.58
2022-12-04T15:37:09.245Z,30.30
2022-12-04T15:39:38.097Z,32.17
2022-12-04T15:42:15.748Z,34.70
2022-12-04T15:45:21.408Z,34.78
2022-12-04T15:47:48.219Z,36.28
2022-12-04T15:50:18.196Z,37.47
2022-12-04T15:53:16.305Z,33.97
2022-12-04T15:55:58.722Z,36.80
2022-12-04T15:58:34.260Z,38.58
2022-12-04T16:01:08.469Z,40.70
2022-12-04T16:03:38.270Z,39.55
2022-12-04T16:06:08.372Z,41.90
2022-12-04T16:08:40.902Z,42.90
2022-12-04T16:11:36.193Z,39.90
2022-12-04T16:14:05.771Z,44.33
2022-12-04T16:16:32.867Z,40.55
2022-12-04T16:19:03.958Z,44.40
2022-12-04T16:21:31.878Z,41.08
2022-12-04T16:24:06.640Z,45.33
2022-12-04T16:26:34.071Z,44.25
2022-12-04T16:29:00.923Z,49.42
2022-12-04T16:31:28.137Z,45.60
2022-12-04T16:33:55.076Z,41.22
2022-12-04T16:36:21.920Z,43.03
2022-12-04T16:38:50.433Z,42.17
2022-12-04T16:41:20.494Z,42.65
2022-12-04T16:43:55.873Z,42.00
2022-12-04T16:46:25.312Z,43.10
2022-12-04T16:48:52.768Z,45.25
2022-12-04T16:51:23.286Z,45.60
2022-12-04T16:53:51.904Z,42.53
2022-12-04T16:56:19.538Z,44.78
2022-12-04T16:58:46.705Z,44.22
2022-12-04T17:01:23.694Z,44.95
2022-12-04T17:03:51.062Z,40.60
2022-12-04T17:06:18.735Z,44.53
2022-12-04T17:08:45.618Z,40.70
2022-12-04T17:11:14.706Z,41.85
2022-12-04T17:13:42.140Z,40.70
2022-12-04T17:16:10.175Z,44.22
2022-12-04T17:18:38.929Z,46.10
2022-12-04T17:21:11.586Z,43.80
2022-12-04T17:23:39.146Z,43.75
2022-12-04T17:26:09.399Z,41.38
2022-12-04T17:28:39.263Z,41.72
2022-12-04T17:31:16.266Z,45.97
2022-12-04T17:33:43.974Z,42.33
2022-12-04T17:36:13.068Z,40.58
2022-12-04T17:38:40.964Z,46.65
2022-12-04T17:41:09.272Z,45.85
2022-12-04T17:43:36.843Z,43.20
2022-12-04T17:46:20.493Z,41.85
2022-12-04T17:48:47.930Z,41.65
2022-12-04T17:51:18.203Z,46.85
2022-12-04T17:53:45.798Z,41.95
2022-12-04T17:56:17.334Z,43.53
2022-12-04T17:58:45.243Z,39.88
2022-12-04T18:01:14.982Z,44.72
2022-12-04T18:03:43.364Z,43.80
2022-12-04T18:06:28.894Z,40.63
2022-12-04T18:08:56.644Z,39.28
2022-12-04T18:11:26.452Z,42.65
2022-12-04T18:13:59.167Z,43.10
2022-12-04T18:16:27.113Z,40.38
2022-12-04T18:18:58.314Z,42.45
2022-12-04T18:21:26.095Z,42.65
2022-12-04T18:23:55.762Z,41.00
2022-12-04T18:26:24.602Z,42.33
2022-12-04T18:28:51.657Z,39.72
2022-12-04T18:31:19.674Z,40.40
2022-12-04T18:33:47.178Z,40.17
2022-12-04T18:36:19.534Z,40.03
2022-12-04T18:38:47.132Z,37.17
2022-12-04T18:41:14.941Z,40.28
2022-12-04T18:43:44.253Z,41.38
2022-12-04T18:46:16.192Z,41.72
2022-12-04T18:48:44.812Z,41.28
2022-12-04T18:51:19.926Z,39.47
2022-12-04T18:53:47.814Z,34.40
2022-12-04T18:56:15.129Z,40.28
2022-12-04T18:58:42.773Z,37.53
2022-12-04T19:01:13.922Z,39.00
2022-12-04T19:03:42.168Z,41.28
2022-12-04T19:06:09.076Z,38.20
2022-12-04T19:08:41.432Z,35.75
2022-12-04T19:11:15.888Z,38.92
2022-12-04T19:13:43.036Z,38.78
2022-12-04T19:16:15.118Z,35.58
2022-12-04T19:18:45.064Z,38.47
2022-12-04T19:21:12.766Z,34.28
2022-12-04T19:23:39.684Z,38.83
2022-12-04T19:26:06.811Z,37.17
2022-12-04T19:28:33.731Z,39.90
2022-12-04T19:31:00.573Z,36.85
2022-12-04T19:33:28.099Z,35.45
2022-12-04T19:36:03.331Z,38.90
2022-12-04T19:38:32.797Z,38.90
2022-12-04T19:41:10.113Z,32.50
2022-12-04T19:43:42.068Z,39.10
2022-12-04T19:46:11.473Z,40.53
2022-12-04T19:48:38.666Z,39.28
2022-12-04T19:51:09.009Z,37.53
2022-12-04T19:53:40.717Z,37.90
2022-12-04T19:56:10.778Z,38.92
2022-12-04T19:58:38.144Z,39.78
2022-12-04T20:01:06.809Z,42.45
2022-12-04T20:03:34.953Z,41.08
2022-12-04T20:06:06.844Z,38.55
2022-12-04T20:08:34.597Z,38.95
2022-12-04T20:11:06.207Z,42.78
2022-12-04T20:13:35.960Z,41.05
2022-12-04T20:16:04.007Z,40.60
2022-12-04T20:18:31.197Z,43.33
2022-12-04T20:20:59.323Z,41.80
2022-12-04T20:23:26.601Z,48.13
2022-12-04T20:25:53.901Z,41.80
2022-12-04T20:28:21.553Z,43.80
2022-12-04T20:30:49.879Z,50.03
2022-12-04T20:33:17.114Z,49.08
2022-12-04T20:35:43.813Z,48.83
2022-12-04T20:38:10.643Z,51.25
2022-12-04T20:40:37.523Z,53.08
2022-12-04T20:43:04.300Z,49.43
2022-12-04T20:45:31.307Z,48.83
2022-12-04T20:47:58.099Z,47.45
2022-12-04T20:50:25.515Z,47.03
2022-12-04T20:52:52.417Z,53.47
2022-12-04T20:55:19.189Z,49.38
2022-12-04T20:57:46.002Z,51.55
2022-12-04T21:00:13.244Z,50.58
2022-12-04T21:02:40.189Z,44.15
2022-12-04T21:05:07.851Z,51.28
2022-12-04T21:07:34.698Z,48.92
2022-12-04T21:10:02.193Z,52.90
2022-12-04T21:12:47.781Z,49.75
2022-12-04T21:15:33.283Z,53.28
2022-12-04T21:18:03.184Z,47.15
2022-12-04T21:20:30.056Z,50.88
2022-12-04T21:22:56.843Z,48.90
2022-12-04T21:25:25.233Z,49.00
2022-12-04T21:27:52.531Z,49.85
2022-12-04T21:30:19.446Z,52.35
2022-12-04T21:32:46.214Z,47.40
2022-12-04T21:35:13.112Z,48.95
2022-12-04T21:37:39.874Z,49.97
2022-12-04T21:40:07.359Z,49.45
2022-12-04T21:42:35.460Z,52.13
2022-12-04T21:45:05.888Z,50.13
2022-12-04T21:47:33.353Z,51.55
2022-12-04T21:50:03.573Z,51.00
2022-12-04T21:52:30.370Z,48.33
2022-12-04T21:54:57.723Z,51.83
2022-12-04T21:57:24.500Z,55.08
2022-12-04T21:59:52.311Z,52.03
2022-12-04T22:02:19.576Z,53.05
2022-12-04T22:04:46.449Z,54.55
2022-12-04T22:07:14.171Z,53.05
2022-12-04T22:09:41.007Z,49.88
2022-12-04T22:12:26.812Z,49.08
2022-12-04T22:14:54.698Z,46.17
2022-12-04T22:17:21.409Z,51.03
2022-12-04T22:19:48.170Z,52.63
2022-12-04T22:22:14.927Z,53.95
2022-12-04T22:24:41.706Z,51.47
2022-12-04T22:27:14.726Z,55.83
2022-12-04T22:29:50.361Z,52.20
2022-12-04T22:32:18.381Z,49.38
2022-12-04T22:34:47.071Z,53.30
2022-12-04T22:37:13.830Z,51.72
2022-12-04T22:39:40.704Z,52.63
2022-12-04T22:42:07.471Z,50.60
2022-12-04T22:44:34.377Z,50.72
2022-12-04T22:47:01.220Z,54.08
2022-12-04T22:49:28.082Z,49.47
2022-12-04T22:51:54.835Z,52.22
2022-12-04T22:54:21.529Z,53.75
2022-12-04T22:56:48.542Z,54.03
2022-12-04T22:59:15.289Z,60.45
2022-12-04T23:01:42.040Z,56.53
2022-12-04T23:04:09.846Z,56.65
2022-12-04T23:06:36.601Z,52.95
2022-12-04T23:09:11.322Z,49.60
2022-12-04T23:11:39.258Z,50.97
2022-12-04T23:14:07.874Z,48.80
2022-12-04T23:16:37.331Z,49.03
2022-12-04T23:19:05.470Z,49.53
2022-12-04T23:21:32.526Z,47.88
2022-12-04T23:23:59.413Z,49.85
2022-12-04T23:26:38.296Z,50.25
2022-12-04T23:29:23.237Z,49.10
2022-12-04T23:31:51.164Z,50.20
2022-12-04T23:34:18.006Z,48.72
2022-12-04T23:36:44.720Z,49.05
2022-12-04T23:39:11.559Z,49.40
2022-12-04T23:41:38.251Z,51.05
2022-12-04T23:44:05.067Z,49.10
2022-12-04T23:46:32.760Z,48.95
2022-12-04T23:49:00.699Z,47.72
2022-12-04T23:51:28.233Z,51.92
2022-12-04T23:53:55.210Z,49.22
2022-12-04T23:56:25.031Z,50.13
2022-12-04T23:58:53.520Z,46.42
